This is the latest recevied weather packets stored in our database for station/object YS1AHL-23. If no packets are shown the sender has not sent any weather packets the latest 10 day(s).
| Time | Temp. | Humidity | Pressure | Rain* | Wind** | Luminosity | Snow |
|---|---|---|---|---|---|---|---|
| 1777338807 | 13.89° C | 59% | 1022 hPa | 0 mm | - | - | - |
| 1777338206 | 13.89° C | 62% | 1022 hPa | 0 mm | - | - | - |
| 1777337606 | 14.44° C | 62% | 1023 hPa | 0 mm | - | - | - |
| 1777336405 | 17.78° C | 39% | 1022 hPa | 0 mm | - | - | - |
| 1777332260 | 20.56° C | 30% | 1022 hPa | 0 mm | - | - | - |
| 1777328056 | 18.33° C | 28% | 1023 hPa | 0 mm | - | - | - |
| 1777327996 | 18.33° C | 28% | 1023 hPa | 0 mm | - | - | - |
| 1777313041 | 20.56° C | 31% | 1024 hPa | 0 mm | - | - | - |
| 1777312380 | 20.56° C | 31% | 1024 hPa | 0 mm | - | - | - |
| 1777311179 | 20.56° C | 31% | 1024 hPa | 0 mm | - | - | - |
| 1777310038 | 21.11° C | 31% | 1024 hPa | 0 mm | - | - | - |
| 1777309978 | 21.11° C | 31% | 1024 hPa | 0 mm | - | - | - |
| 1777309377 | 19.44° C | 37% | 1024 hPa | 0 mm | - | - | - |
| 1777307575 | 20° C | 37% | 1024 hPa | 0 mm | - | - | - |
| 1777306975 | 20° C | 37% | 1025 hPa | 0 mm | - | - | - |
| 1777306434 | 17.78° C | 39% | 1025 hPa | 0 mm | - | - | - |
| 1777304032 | 18.33° C | 40% | 1025 hPa | 0 mm | - | - | - |
| 1777303972 | 18.33° C | 40% | 1025 hPa | 0 mm | - | - | - |
| 1777302831 | 19.44° C | 40% | 1025 hPa | 0 mm | - | - | - |
| 1777300428 | 16.67° C | 47% | 1025 hPa | 0 mm | - | - | - |
| 1777300368 | 16.67° C | 47% | 1025 hPa | 0 mm | - | - | - |
| 1777299828 | 16.67° C | 47% | 1025 hPa | 0 mm | - | - | - |
| 1777299768 | 16.67° C | 47% | 1025 hPa | 0 mm | - | - | - |
| 1777299227 | 16.67° C | 47% | 1025 hPa | 0 mm | - | - | - |
| 1777299167 | 16.67° C | 47% | 1025 hPa | 0 mm | - | - | - |
* Rain latest hour (hover to see other rain measurements)
** Current wind speed in m/s (hover to see current wind gust speed)